Terminal Aerodrome Forecast
Issued by NWS Central Illinois

Home | Current Version | Previous Version | Text Only | Print | Product List | Glossary On
Versions: 1 2 3 4 5 6 7 8 9 10 11 12 13 14 15 16 17 18 19 20 21 22 23
091
FTUS43 KILX 251735
TAFPIA
TAF
KPIA 251735Z 2518/2618 15011KT P6SM BKN025 OVC050
     FM252000 14008KT 6SM -SHRA VCTS OVC030CB
     FM260000 13007KT 6SM -SHRA OVC025
     FM260300 12006KT P6SM VCSH OVC015
     FM260600 13006KT 4SM BR OVC010
     FM261000 15006KT 2SM BR OVC007=

USA.gov is the U.S. government's official web portal to all federal, state and local government web resources and services.